Alanya, Turkey
Current Conditions -  °F | °C
As of 5:05 PM on Saturday 25 Oct 2014 (Local Time) from LTFG Reporting Station
Thunderstorm Thunderstorm  
Wind Chill: 59°   Ceiling: 2500
Heat Index: 59°   Visibility: 0.62mi
Dew Point: 57°   Wind: 17mph
Humidity: 94%   Direction: 10°N
Pressure: 29.97"   Gusts: NA
Location:  36.56°N, 32°E
Report Text: LTFG 251405Z 01015KT 1000 0350W R08/0350N TSRA SCT020CB BKN025 15/14 Q1015 RETSRA
Loading
Personal Weather Stations






























Interactive Weather Map New forecast layout! Learn more

10-Day Weather Forecast

Advertisements
Track Severe Weather on mobile